BCS1491 EHAM-EDDP
Flight info
| Callsign | BCS1491 |
|---|---|
| Flight time | 0h 47m |
| Altitude | 33000 |
| Route | ARNEM L620 HMM DCT NORTA/N0409F230 DCT ADMOS T959 KOJEC KOJEC1R |
| Aircraft | B77L/H-SDE1E2E3FGHIJ2J3J4J5M1RWXY/LB1D1 |
Departure
| Time | 2026-05-06 21:35 |
|---|---|
| Airport | Amsterdam Airport Schiphol (EHAM) |
Arrival
| Time | 2026-05-06 22:23 |
|---|---|
| Airport | Leipzig/Halle Airport (EDDP) |
| Time | Latitude | Longitude | Altitude | Speed | Heading |
|---|---|---|---|---|---|
| 2026-05-06 21:14 | 52.29278 | 4.75605 | 3 ft | 0 kts | 148° |
| 2026-05-06 21:23 | 52.29292 | 4.75591 | 4 ft | 4 kts | 145° |
| 2026-05-06 21:23 | 52.29314 | 4.75564 | 5 ft | 4 kts | 139° |
| 2026-05-06 21:23 | 52.29333 | 4.75534 | 6 ft | 4 kts | 127° |
| 2026-05-06 21:24 | 52.29345 | 4.75497 | 5 ft | 4 kts | 93° |
| 2026-05-06 21:24 | 52.29344 | 4.75476 | 7 ft | 0 kts | 58° |
| 2026-05-06 21:27 | 52.29347 | 4.75484 | 4 ft | 1 kts | 58° |
| 2026-05-06 21:27 | 52.29351 | 4.75495 | 4 ft | 2 kts | 57° |
| 2026-05-06 21:27 | 52.29366 | 4.75532 | 4 ft | 6 kts | 53° |
| 2026-05-06 21:27 | 52.29414 | 4.75569 | 3 ft | 9 kts | 356° |
| 2026-05-06 21:28 | 52.29469 | 4.75519 | 3 ft | 9 kts | 327° |
| 2026-05-06 21:28 | 52.29524 | 4.75462 | 2 ft | 10 kts | 328° |
| 2026-05-06 21:28 | 52.29583 | 4.75403 | 3 ft | 10 kts | 328° |
| 2026-05-06 21:28 | 52.29640 | 4.75344 | 4 ft | 10 kts | 328° |
| 2026-05-06 21:29 | 52.29700 | 4.75287 | 3 ft | 10 kts | 336° |
| 2026-05-06 21:29 | 52.29768 | 4.75273 | 3 ft | 10 kts | 356° |
| 2026-05-06 21:29 | 52.29827 | 4.75224 | 3 ft | 10 kts | 312° |
| 2026-05-06 21:29 | 52.29871 | 4.75139 | 3 ft | 10 kts | 310° |
| 2026-05-06 21:30 | 52.29916 | 4.75053 | 3 ft | 10 kts | 310° |
| 2026-05-06 21:30 | 52.29962 | 4.74968 | 3 ft | 10 kts | 312° |
| 2026-05-06 21:30 | 52.30014 | 4.74873 | 3 ft | 16 kts | 312° |
| 2026-05-06 21:30 | 52.30128 | 4.74664 | 13 ft | 32 kts | 311° |
| 2026-05-06 21:31 | 52.30271 | 4.74399 | 14 ft | 25 kts | 311° |
| 2026-05-06 21:31 | 52.30359 | 4.74224 | 4 ft | 16 kts | 298° |
| 2026-05-06 21:31 | 52.30335 | 4.74058 | 3 ft | 16 kts | 223° |
| 2026-05-06 21:31 | 52.30245 | 4.73946 | 3 ft | 16 kts | 213° |
| 2026-05-06 21:32 | 52.30191 | 4.73819 | 3 ft | 11 kts | 271° |
| 2026-05-06 21:32 | 52.30269 | 4.73743 | 1 ft | 0 kts | 3° |
| 2026-05-06 21:34 | 52.30383 | 4.73755 | 1 ft | 45 kts | 4° |
| 2026-05-06 21:35 | 52.30997 | 4.73810 | 4 ft | 128 kts | 3° |
| 2026-05-06 21:35 | 52.32119 | 4.73914 | 32 ft | 188 kts | 3° |
| 2026-05-06 21:35 | 52.33473 | 4.74022 | 667 ft | 196 kts | 3° |
| 2026-05-06 21:35 | 52.34726 | 4.74409 | 1745 ft | 180 kts | 27° |
| 2026-05-06 21:36 | 52.35804 | 4.75379 | 2464 ft | 181 kts | 31° |
| 2026-05-06 21:36 | 52.36999 | 4.76357 | 2826 ft | 202 kts | 27° |
| 2026-05-06 21:36 | 52.38318 | 4.77409 | 3160 ft | 221 kts | 35° |
| 2026-05-06 21:36 | 52.39443 | 4.79314 | 3408 ft | 241 kts | 52° |
| 2026-05-06 21:37 | 52.40487 | 4.81442 | 4389 ft | 237 kts | 50° |
| 2026-05-06 21:37 | 52.41611 | 4.83452 | 5192 ft | 241 kts | 48° |
| 2026-05-06 21:37 | 52.42396 | 4.85888 | 5807 ft | 251 kts | 81° |
| 2026-05-06 21:37 | 52.42402 | 4.88759 | 6574 ft | 255 kts | 89° |
| 2026-05-06 21:38 | 52.42388 | 4.91730 | 7293 ft | 265 kts | 88° |
| 2026-05-06 21:38 | 52.42400 | 4.94824 | 8014 ft | 275 kts | 88° |
| 2026-05-06 21:38 | 52.42175 | 4.97941 | 8735 ft | 283 kts | 110° |
| 2026-05-06 21:38 | 52.41027 | 5.00547 | 9460 ft | 291 kts | 141° |
| 2026-05-06 21:39 | 52.39361 | 5.02473 | 10167 ft | 297 kts | 146° |
| 2026-05-06 21:39 | 52.37603 | 5.04474 | 10528 ft | 321 kts | 145° |
| 2026-05-06 21:39 | 52.35689 | 5.06673 | 10765 ft | 348 kts | 145° |
| 2026-05-06 21:39 | 52.33768 | 5.09228 | 10952 ft | 367 kts | 130° |
| 2026-05-06 21:40 | 52.32488 | 5.12906 | 11577 ft | 373 kts | 110° |
| 2026-05-06 21:40 | 52.31613 | 5.16876 | 12283 ft | 382 kts | 110° |
| 2026-05-06 21:40 | 52.30665 | 5.20988 | 13119 ft | 388 kts | 111° |
| 2026-05-06 21:40 | 52.29684 | 5.25143 | 13961 ft | 393 kts | 111° |
| 2026-05-06 21:41 | 52.28688 | 5.29332 | 14867 ft | 394 kts | 111° |
| 2026-05-06 21:41 | 52.27695 | 5.33490 | 15577 ft | 402 kts | 112° |
| 2026-05-06 21:41 | 52.26667 | 5.37782 | 16362 ft | 406 kts | 112° |
| 2026-05-06 21:41 | 52.25624 | 5.42132 | 17065 ft | 413 kts | 112° |
| 2026-05-06 21:42 | 52.24571 | 5.46519 | 17828 ft | 418 kts | 112° |
| 2026-05-06 21:42 | 52.23498 | 5.50971 | 18541 ft | 423 kts | 112° |
| 2026-05-06 21:42 | 52.22416 | 5.55453 | 19202 ft | 427 kts | 112° |
| 2026-05-06 21:42 | 52.21317 | 5.59974 | 19892 ft | 430 kts | 112° |
| 2026-05-06 21:43 | 52.20222 | 5.64472 | 20552 ft | 434 kts | 113° |
| 2026-05-06 21:43 | 52.19098 | 5.69078 | 21202 ft | 438 kts | 113° |
| 2026-05-06 21:43 | 52.17961 | 5.73734 | 21842 ft | 443 kts | 113° |
| 2026-05-06 21:43 | 52.16816 | 5.78410 | 22488 ft | 447 kts | 113° |
| 2026-05-06 21:44 | 52.15657 | 5.83141 | 23123 ft | 451 kts | 113° |
| 2026-05-06 21:44 | 52.14484 | 5.87916 | 23715 ft | 455 kts | 113° |
| 2026-05-06 21:44 | 52.13301 | 5.92719 | 24253 ft | 458 kts | 113° |
| 2026-05-06 21:44 | 52.12130 | 5.97471 | 24864 ft | 459 kts | 113° |
| 2026-05-06 21:45 | 52.10928 | 6.02340 | 25449 ft | 461 kts | 113° |
| 2026-05-06 21:45 | 52.09742 | 6.07165 | 25963 ft | 464 kts | 112° |
| 2026-05-06 21:45 | 52.08848 | 6.12253 | 26402 ft | 469 kts | 102° |
| 2026-05-06 21:45 | 52.08335 | 6.17492 | 26866 ft | 473 kts | 99° |
| 2026-05-06 21:46 | 52.07886 | 6.22845 | 27383 ft | 476 kts | 99° |
| 2026-05-06 21:46 | 52.07428 | 6.28148 | 27908 ft | 478 kts | 99° |
| 2026-05-06 21:46 | 52.06924 | 6.33543 | 28415 ft | 481 kts | 100° |
| 2026-05-06 21:46 | 52.06389 | 6.38901 | 28882 ft | 483 kts | 101° |
| 2026-05-06 21:47 | 52.05823 | 6.44339 | 29398 ft | 485 kts | 101° |
| 2026-05-06 21:47 | 52.05254 | 6.49701 | 30044 ft | 482 kts | 101° |
| 2026-05-06 21:47 | 52.04688 | 6.55012 | 30638 ft | 480 kts | 101° |
| 2026-05-06 21:47 | 52.04115 | 6.60386 | 31121 ft | 480 kts | 101° |
| 2026-05-06 21:48 | 52.03547 | 6.65704 | 31544 ft | 480 kts | 101° |
| 2026-05-06 21:48 | 52.02974 | 6.71065 | 31981 ft | 481 kts | 101° |
| 2026-05-06 21:48 | 52.02388 | 6.76407 | 32445 ft | 480 kts | 102° |
| 2026-05-06 21:48 | 52.01631 | 6.81613 | 32871 ft | 479 kts | 105° |
| 2026-05-06 21:49 | 51.99904 | 6.92174 | 32933 ft | 484 kts | 106° |
| 2026-05-06 21:49 | 51.98204 | 7.02725 | 32918 ft | 479 kts | 105° |
| 2026-05-06 21:50 | 51.96507 | 7.13155 | 32925 ft | 477 kts | 107° |
| 2026-05-06 21:50 | 51.94624 | 7.23408 | 32926 ft | 477 kts | 108° |
| 2026-05-06 21:51 | 51.92670 | 7.33712 | 32910 ft | 478 kts | 108° |
| 2026-05-06 21:51 | 51.90732 | 7.44046 | 32930 ft | 482 kts | 108° |
| 2026-05-06 21:52 | 51.88776 | 7.54500 | 32924 ft | 490 kts | 108° |
| 2026-05-06 21:52 | 51.86822 | 7.65056 | 32905 ft | 489 kts | 105° |
| 2026-05-06 21:53 | 51.85782 | 7.75903 | 32918 ft | 491 kts | 95° |
| 2026-05-06 21:53 | 51.85820 | 7.86993 | 32894 ft | 491 kts | 90° |
| 2026-05-06 21:54 | 51.86012 | 7.98026 | 32907 ft | 491 kts | 90° |
| 2026-05-06 21:54 | 51.86167 | 8.09064 | 32897 ft | 491 kts | 90° |
| 2026-05-06 21:55 | 51.86287 | 8.20042 | 32900 ft | 491 kts | 91° |
| 2026-05-06 21:55 | 51.86390 | 8.31117 | 32880 ft | 491 kts | 91° |
| 2026-05-06 21:56 | 51.86483 | 8.42115 | 32890 ft | 491 kts | 91° |
| 2026-05-06 21:56 | 51.86568 | 8.53189 | 32887 ft | 492 kts | 91° |
| 2026-05-06 21:57 | 51.86643 | 8.64285 | 32884 ft | 492 kts | 91° |
| 2026-05-06 21:57 | 51.86707 | 8.75324 | 32885 ft | 493 kts | 91° |
| 2026-05-06 21:58 | 51.86761 | 8.86427 | 32874 ft | 493 kts | 92° |
| 2026-05-06 21:58 | 51.86805 | 8.97541 | 32877 ft | 493 kts | 92° |
| 2026-05-06 21:59 | 51.86823 | 9.03103 | 32297 ft | 500 kts | 92° |
| 2026-05-06 21:59 | 51.86836 | 9.08761 | 31365 ft | 507 kts | 92° |
| 2026-05-06 21:59 | 51.86849 | 9.14435 | 30806 ft | 499 kts | 92° |
| 2026-05-06 21:59 | 51.86861 | 9.20029 | 30231 ft | 493 kts | 92° |
| 2026-05-06 22:00 | 51.86870 | 9.25551 | 29639 ft | 488 kts | 92° |
| 2026-05-06 22:00 | 51.86876 | 9.31007 | 29043 ft | 482 kts | 92° |
| 2026-05-06 22:00 | 51.86879 | 9.36399 | 28511 ft | 476 kts | 92° |
| 2026-05-06 22:00 | 51.86876 | 9.41729 | 27959 ft | 475 kts | 91° |
| 2026-05-06 22:01 | 51.86860 | 9.47134 | 27421 ft | 485 kts | 91° |
| 2026-05-06 22:01 | 51.86839 | 9.52600 | 26869 ft | 495 kts | 91° |
| 2026-05-06 22:01 | 51.86825 | 9.58227 | 26361 ft | 502 kts | 91° |
| 2026-05-06 22:01 | 51.86820 | 9.63908 | 25952 ft | 506 kts | 91° |
| 2026-05-06 22:02 | 51.86818 | 9.69581 | 25566 ft | 495 kts | 91° |
| 2026-05-06 22:02 | 51.86814 | 9.74953 | 24573 ft | 472 kts | 91° |
| 2026-05-06 22:02 | 51.86705 | 9.80292 | 23723 ft | 473 kts | 95° |
| 2026-05-06 22:02 | 51.86271 | 9.85551 | 23130 ft | 466 kts | 102° |
| 2026-05-06 22:03 | 51.85569 | 9.90580 | 22605 ft | 458 kts | 104° |
| 2026-05-06 22:03 | 51.84848 | 9.95619 | 22159 ft | 449 kts | 104° |
| 2026-05-06 22:03 | 51.84166 | 10.00429 | 21864 ft | 438 kts | 104° |
| 2026-05-06 22:03 | 51.83496 | 10.05216 | 21358 ft | 434 kts | 104° |
| 2026-05-06 22:04 | 51.82836 | 10.09956 | 20869 ft | 429 kts | 104° |
| 2026-05-06 22:04 | 51.82186 | 10.14639 | 20378 ft | 425 kts | 104° |
| 2026-05-06 22:04 | 51.81541 | 10.19291 | 19894 ft | 422 kts | 104° |
| 2026-05-06 22:04 | 51.80900 | 10.23902 | 19421 ft | 419 kts | 104° |
| 2026-05-06 22:05 | 51.80269 | 10.28431 | 18934 ft | 417 kts | 105° |
| 2026-05-06 22:05 | 51.79633 | 10.32981 | 18471 ft | 414 kts | 105° |
| 2026-05-06 22:05 | 51.78995 | 10.37524 | 17972 ft | 412 kts | 105° |
| 2026-05-06 22:05 | 51.78360 | 10.42028 | 17440 ft | 409 kts | 105° |
| 2026-05-06 22:06 | 51.77728 | 10.46487 | 16953 ft | 405 kts | 105° |
| 2026-05-06 22:06 | 51.77102 | 10.50903 | 16470 ft | 401 kts | 105° |
| 2026-05-06 22:06 | 51.76481 | 10.55275 | 15999 ft | 398 kts | 105° |
| 2026-05-06 22:06 | 51.75863 | 10.59611 | 15534 ft | 394 kts | 105° |
| 2026-05-06 22:07 | 51.75257 | 10.63854 | 15077 ft | 391 kts | 105° |
| 2026-05-06 22:07 | 51.74647 | 10.68109 | 14629 ft | 387 kts | 105° |
| 2026-05-06 22:07 | 51.74042 | 10.72323 | 14160 ft | 384 kts | 105° |
| 2026-05-06 22:07 | 51.73441 | 10.76506 | 13707 ft | 381 kts | 105° |
| 2026-05-06 22:08 | 51.72843 | 10.80643 | 13220 ft | 377 kts | 105° |
| 2026-05-06 22:08 | 51.72182 | 10.84727 | 12755 ft | 372 kts | 110° |
| 2026-05-06 22:08 | 51.71276 | 10.88593 | 12295 ft | 366 kts | 114° |
| 2026-05-06 22:08 | 51.70334 | 10.92388 | 11852 ft | 362 kts | 114° |
| 2026-05-06 22:09 | 51.69404 | 10.96150 | 11423 ft | 359 kts | 114° |
| 2026-05-06 22:09 | 51.68489 | 10.99876 | 10995 ft | 355 kts | 114° |
| 2026-05-06 22:09 | 51.67600 | 11.03510 | 10707 ft | 348 kts | 114° |
| 2026-05-06 22:09 | 51.66728 | 11.07082 | 10560 ft | 336 kts | 114° |
| 2026-05-06 22:10 | 51.65884 | 11.10542 | 10406 ft | 325 kts | 114° |
| 2026-05-06 22:10 | 51.65069 | 11.13880 | 10276 ft | 314 kts | 114° |
| 2026-05-06 22:10 | 51.64282 | 11.17107 | 10128 ft | 303 kts | 114° |
| 2026-05-06 22:10 | 51.63523 | 11.20205 | 10009 ft | 292 kts | 114° |
| 2026-05-06 22:11 | 51.62801 | 11.23146 | 9884 ft | 280 kts | 114° |
| 2026-05-06 22:11 | 51.62096 | 11.26000 | 9682 ft | 270 kts | 116° |
| 2026-05-06 22:11 | 51.61179 | 11.28607 | 9392 ft | 268 kts | 127° |
| 2026-05-06 22:11 | 51.60064 | 11.31065 | 9100 ft | 275 kts | 129° |
| 2026-05-06 22:12 | 51.58906 | 11.33548 | 8771 ft | 278 kts | 129° |
| 2026-05-06 22:12 | 51.57760 | 11.36030 | 8503 ft | 273 kts | 128° |
| 2026-05-06 22:12 | 51.56655 | 11.38456 | 8273 ft | 265 kts | 128° |
| 2026-05-06 22:12 | 51.55592 | 11.40814 | 7980 ft | 261 kts | 127° |
| 2026-05-06 22:13 | 51.54526 | 11.43190 | 7709 ft | 264 kts | 128° |
| 2026-05-06 22:13 | 51.53437 | 11.45621 | 7417 ft | 270 kts | 128° |
| 2026-05-06 22:13 | 51.52327 | 11.48097 | 7092 ft | 272 kts | 127° |
| 2026-05-06 22:13 | 51.51214 | 11.50538 | 6774 ft | 266 kts | 131° |
| 2026-05-06 22:14 | 51.49931 | 11.52572 | 6469 ft | 260 kts | 140° |
| 2026-05-06 22:14 | 51.48552 | 11.54412 | 6161 ft | 255 kts | 141° |
| 2026-05-06 22:14 | 51.47201 | 11.56189 | 5902 ft | 243 kts | 141° |
| 2026-05-06 22:14 | 51.45949 | 11.57864 | 5568 ft | 227 kts | 141° |
| 2026-05-06 22:15 | 51.44766 | 11.59473 | 5084 ft | 222 kts | 140° |
| 2026-05-06 22:15 | 51.43591 | 11.61077 | 4678 ft | 222 kts | 140° |
| 2026-05-06 22:15 | 51.42395 | 11.62720 | 4224 ft | 230 kts | 140° |
| 2026-05-06 22:15 | 51.41147 | 11.64437 | 4103 ft | 247 kts | 140° |
| 2026-05-06 22:16 | 51.39830 | 11.66267 | 4008 ft | 250 kts | 136° |
| 2026-05-06 22:16 | 51.38878 | 11.68567 | 4011 ft | 253 kts | 107° |
| 2026-05-06 22:16 | 51.38756 | 11.71382 | 4017 ft | 256 kts | 84° |
| 2026-05-06 22:16 | 51.38971 | 11.74228 | 4020 ft | 259 kts | 84° |
| 2026-05-06 22:17 | 51.39124 | 11.77094 | 4007 ft | 258 kts | 86° |
| 2026-05-06 22:17 | 51.39255 | 11.79904 | 3966 ft | 253 kts | 86° |
| 2026-05-06 22:17 | 51.39383 | 11.82656 | 3783 ft | 240 kts | 86° |
| 2026-05-06 22:17 | 51.39506 | 11.85261 | 3648 ft | 234 kts | 86° |
| 2026-05-06 22:18 | 51.39629 | 11.87880 | 3544 ft | 236 kts | 86° |
| 2026-05-06 22:18 | 51.39751 | 11.90465 | 3418 ft | 228 kts | 86° |
| 2026-05-06 22:18 | 51.39829 | 11.92117 | 3315 ft | 219 kts | 86° |
| 2026-05-06 22:18 | 51.39941 | 11.94492 | 3272 ft | 211 kts | 86° |
| 2026-05-06 22:19 | 51.40051 | 11.96843 | 3141 ft | 209 kts | 87° |
| 2026-05-06 22:19 | 51.40157 | 11.99083 | 3064 ft | 193 kts | 86° |
| 2026-05-06 22:19 | 51.40256 | 12.01201 | 2838 ft | 189 kts | 86° |
| 2026-05-06 22:19 | 51.40352 | 12.03257 | 2599 ft | 183 kts | 87° |
| 2026-05-06 22:20 | 51.40445 | 12.05223 | 2351 ft | 171 kts | 87° |
| 2026-05-06 22:20 | 51.40533 | 12.07104 | 2141 ft | 169 kts | 87° |
| 2026-05-06 22:20 | 51.40621 | 12.08974 | 1953 ft | 167 kts | 86° |
| 2026-05-06 22:20 | 51.40705 | 12.10759 | 1704 ft | 153 kts | 87° |
| 2026-05-06 22:21 | 51.40785 | 12.12369 | 1481 ft | 145 kts | 86° |
| 2026-05-06 22:21 | 51.40852 | 12.13971 | 1312 ft | 143 kts | 87° |
| 2026-05-06 22:21 | 51.40925 | 12.15585 | 1086 ft | 146 kts | 84° |
| 2026-05-06 22:21 | 51.41005 | 12.17198 | 863 ft | 144 kts | 85° |
| 2026-05-06 22:22 | 51.41076 | 12.18786 | 670 ft | 141 kts | 83° |
| 2026-05-06 22:22 | 51.41150 | 12.20337 | 488 ft | 138 kts | 83° |
| 2026-05-06 22:22 | 51.41225 | 12.21801 | 460 ft | 118 kts | 85° |
| 2026-05-06 22:22 | 51.41273 | 12.22813 | 470 ft | 65 kts | 85° |
| 2026-05-06 22:23 | 51.41300 | 12.23407 | 474 ft | 49 kts | 85° |
| 2026-05-06 22:23 | 51.41306 | 12.23869 | 477 ft | 35 kts | 97° |
| 2026-05-06 22:23 | 51.41239 | 12.24183 | 471 ft | 27 kts | 116° |
| 2026-05-06 22:23 | 51.41196 | 12.24324 | 476 ft | 6 kts | 114° |
| 2026-05-06 22:24 | 51.41183 | 12.24381 | 472 ft | 6 kts | 106° |
| 2026-05-06 22:24 | 51.41178 | 12.24443 | 473 ft | 6 kts | 90° |
| 2026-05-06 22:24 | 51.41178 | 12.24504 | 477 ft | 6 kts | 93° |
| 2026-05-06 22:24 | 51.41151 | 12.24563 | 469 ft | 8 kts | 150° |
| 2026-05-06 22:25 | 51.41095 | 12.24622 | 469 ft | 12 kts | 142° |
| 2026-05-06 22:25 | 51.41004 | 12.24654 | 468 ft | 15 kts | 174° |
| 2026-05-06 22:25 | 51.40959 | 12.24673 | 469 ft | 5 kts | 139° |
| 2026-05-06 22:25 | 51.40955 | 12.24733 | 468 ft | 6 kts | 86° |
| 2026-05-06 22:26 | 51.40958 | 12.24805 | 467 ft | 4 kts | 86° |
| 2026-05-06 22:26 | 51.40958 | 12.24810 | 466 ft | 0 kts | 86° |
| 2026-05-06 22:26 | 51.40958 | 12.24814 | 466 ft | 0 kts | 86° |